sensor_id;sensor_type;location;lat;lon;timestamp;P1;durP1;ratioP1;P2;durP2;ratioP2
9958;SDS011;5019;48.012;7.812;2023-02-18T00:01:57;1.60;;;1.50;;
9958;SDS011;5019;48.012;7.812;2023-02-18T00:04:23;1.40;;;1.30;;
9958;SDS011;5019;48.012;7.812;2023-02-18T00:06:49;1.70;;;1.60;;
9958;SDS011;5019;48.012;7.812;2023-02-18T00:09:15;2.80;;;1.50;;
9958;SDS011;5019;48.012;7.812;2023-02-18T00:11:41;2.83;;;2.40;;
9958;SDS011;5019;48.012;7.812;2023-02-18T00:14:10;2.57;;;1.73;;
9958;SDS011;5019;48.012;7.812;2023-02-18T00:16:36;2.27;;;2.07;;
9958;SDS011;5019;48.012;7.812;2023-02-18T00:19:04;3.10;;;2.37;;
9958;SDS011;5019;48.012;7.812;2023-02-18T00:21:31;2.13;;;1.80;;
9958;SDS011;5019;48.012;7.812;2023-02-18T00:23:57;3.60;;;2.13;;
9958;SDS011;5019;48.012;7.812;2023-02-18T00:26:23;2.93;;;2.63;;
9958;SDS011;5019;48.012;7.812;2023-02-18T00:28:49;2.10;;;2.00;;
9958;SDS011;5019;48.012;7.812;2023-02-18T00:31:19;1.67;;;1.57;;
9958;SDS011;5019;48.012;7.812;2023-02-18T00:33:46;2.07;;;1.83;;
9958;SDS011;5019;48.012;7.812;2023-02-18T00:36:13;2.30;;;1.93;;
9958;SDS011;5019;48.012;7.812;2023-02-18T00:38:42;2.30;;;2.10;;
9958;SDS011;5019;48.012;7.812;2023-02-18T00:41:08;1.90;;;1.70;;
9958;SDS011;5019;48.012;7.812;2023-02-18T00:43:34;1.60;;;1.47;;
9958;SDS011;5019;48.012;7.812;2023-02-18T00:46:00;2.23;;;1.70;;
9958;SDS011;5019;48.012;7.812;2023-02-18T00:48:27;1.67;;;1.57;;
9958;SDS011;5019;48.012;7.812;2023-02-18T00:50:52;1.83;;;1.73;;
9958;SDS011;5019;48.012;7.812;2023-02-18T00:53:18;2.70;;;1.93;;
9958;SDS011;5019;48.012;7.812;2023-02-18T00:55:46;1.90;;;1.63;;
9958;SDS011;5019;48.012;7.812;2023-02-18T00:58:13;4.37;;;1.87;;
9958;SDS011;5019;48.012;7.812;2023-02-18T01:00:39;1.87;;;1.77;;
9958;SDS011;5019;48.012;7.812;2023-02-18T01:03:05;1.30;;;1.20;;
9958;SDS011;5019;48.012;7.812;2023-02-18T01:05:32;4.80;;;1.30;;
9958;SDS011;5019;48.012;7.812;2023-02-18T01:07:58;2.07;;;1.63;;
9958;SDS011;5019;48.012;7.812;2023-02-18T01:10:24;1.90;;;1.57;;
9958;SDS011;5019;48.012;7.812;2023-02-18T01:12:50;2.03;;;1.50;;
9958;SDS011;5019;48.012;7.812;2023-02-18T01:15:16;1.70;;;1.60;;
9958;SDS011;5019;48.012;7.812;2023-02-18T01:17:42;1.47;;;1.37;;
9958;SDS011;5019;48.012;7.812;2023-02-18T01:20:08;1.30;;;1.20;;
9958;SDS011;5019;48.012;7.812;2023-02-18T01:22:35;2.83;;;1.73;;
9958;SDS011;5019;48.012;7.812;2023-02-18T01:25:01;2.00;;;1.90;;
9958;SDS011;5019;48.012;7.812;2023-02-18T01:27:27;1.87;;;1.30;;
9958;SDS011;5019;48.012;7.812;2023-02-18T01:29:53;1.47;;;1.20;;
9958;SDS011;5019;48.012;7.812;2023-02-18T01:32:19;1.73;;;1.60;;
9958;SDS011;5019;48.012;7.812;2023-02-18T01:34:45;1.63;;;1.20;;
9958;SDS011;5019;48.012;7.812;2023-02-18T01:37:11;2.90;;;1.60;;
9958;SDS011;5019;48.012;7.812;2023-02-18T01:39:37;2.33;;;1.40;;
9958;SDS011;5019;48.012;7.812;2023-02-18T01:42:04;3.10;;;1.50;;
9958;SDS011;5019;48.012;7.812;2023-02-18T01:44:31;1.30;;;1.13;;
9958;SDS011;5019;48.012;7.812;2023-02-18T01:46:58;1.47;;;1.37;;
9958;SDS011;5019;48.012;7.812;2023-02-18T01:49:29;1.17;;;1.07;;
9958;SDS011;5019;48.012;7.812;2023-02-18T01:52:06;1.30;;;1.20;;
9958;SDS011;5019;48.012;7.812;2023-02-18T01:54:34;2.30;;;1.50;;
9958;SDS011;5019;48.012;7.812;2023-02-18T01:57:05;1.47;;;1.37;;
9958;SDS011;5019;48.012;7.812;2023-02-18T01:59:33;2.17;;;1.60;;
9958;SDS011;5019;48.012;7.812;2023-02-18T02:02:01;1.30;;;1.20;;
9958;SDS011;5019;48.012;7.812;2023-02-18T02:04:28;1.20;;;1.20;;
9958;SDS011;5019;48.012;7.812;2023-02-18T02:06:53;1.40;;;1.30;;
9958;SDS011;5019;48.012;7.812;2023-02-18T02:09:20;1.20;;;1.00;;
9958;SDS011;5019;48.012;7.812;2023-02-18T02:16:54;1.20;;;1.00;;
9958;SDS011;5019;48.012;7.812;2023-02-18T02:19:35;0.90;;;0.90;;
9958;SDS011;5019;48.012;7.812;2023-02-18T02:22:10;0.80;;;0.80;;
9958;SDS011;5019;48.012;7.812;2023-02-18T02:24:49;1.30;;;1.20;;
9958;SDS011;5019;48.012;7.812;2023-02-18T02:37:55;1.57;;;1.00;;
9958;SDS011;5019;48.012;7.812;2023-02-18T02:53:22;0.90;;;0.90;;
9958;SDS011;5019;48.012;7.812;2023-02-18T02:55:50;0.73;;;0.70;;
9958;SDS011;5019;48.012;7.812;2023-02-18T02:58:16;1.17;;;1.07;;
9958;SDS011;5019;48.012;7.812;2023-02-18T03:03:38;1.37;;;1.10;;
9958;SDS011;5019;48.012;7.812;2023-02-18T03:11:36;1.10;;;0.90;;
9958;SDS011;5019;48.012;7.812;2023-02-18T03:23:56;0.80;;;0.80;;
9958;SDS011;5019;48.012;7.812;2023-02-18T03:26:24;1.00;;;0.87;;
9958;SDS011;5019;48.012;7.812;2023-02-18T03:28:51;2.23;;;1.10;;
9958;SDS011;5019;48.012;7.812;2023-02-18T03:31:18;2.30;;;1.13;;
9958;SDS011;5019;48.012;7.812;2023-02-18T03:33:54;1.13;;;0.90;;
9958;SDS011;5019;48.012;7.812;2023-02-18T03:36:21;1.03;;;1.03;;
9958;SDS011;5019;48.012;7.812;2023-02-18T03:38:50;1.53;;;0.93;;
9958;SDS011;5019;48.012;7.812;2023-02-18T03:41:18;0.80;;;0.80;;
9958;SDS011;5019;48.012;7.812;2023-02-18T03:43:48;1.10;;;1.00;;
9958;SDS011;5019;48.012;7.812;2023-02-18T03:46:14;0.97;;;0.80;;
9958;SDS011;5019;48.012;7.812;2023-02-18T03:48:40;1.10;;;0.90;;
9958;SDS011;5019;48.012;7.812;2023-02-18T03:51:06;1.20;;;1.10;;
9958;SDS011;5019;48.012;7.812;2023-02-18T03:53:32;1.37;;;0.90;;
9958;SDS011;5019;48.012;7.812;2023-02-18T03:55:58;0.90;;;0.90;;
9958;SDS011;5019;48.012;7.812;2023-02-18T03:58:24;0.87;;;0.87;;
9958;SDS011;5019;48.012;7.812;2023-02-18T04:00:50;0.80;;;0.80;;
9958;SDS011;5019;48.012;7.812;2023-02-18T04:03:16;1.23;;;0.93;;
9958;SDS011;5019;48.012;7.812;2023-02-18T04:05:42;1.20;;;1.10;;
9958;SDS011;5019;48.012;7.812;2023-02-18T04:08:08;0.90;;;0.90;;
9958;SDS011;5019;48.012;7.812;2023-02-18T04:10:34;1.00;;;0.90;;
9958;SDS011;5019;48.012;7.812;2023-02-18T04:13:00;1.33;;;1.03;;
9958;SDS011;5019;48.012;7.812;2023-02-18T04:15:26;0.97;;;0.80;;
9958;SDS011;5019;48.012;7.812;2023-02-18T04:17:52;1.20;;;1.10;;
9958;SDS011;5019;48.012;7.812;2023-02-18T04:20:18;0.90;;;0.90;;
9958;SDS011;5019;48.012;7.812;2023-02-18T04:22:44;0.87;;;0.87;;
9958;SDS011;5019;48.012;7.812;2023-02-18T04:25:10;1.10;;;1.00;;
9958;SDS011;5019;48.012;7.812;2023-02-18T04:27:36;1.33;;;1.17;;
9958;SDS011;5019;48.012;7.812;2023-02-18T04:30:02;1.27;;;1.00;;
9958;SDS011;5019;48.012;7.812;2023-02-18T04:32:29;1.00;;;0.90;;
9958;SDS011;5019;48.012;7.812;2023-02-18T04:34:55;1.13;;;0.70;;
9958;SDS011;5019;48.012;7.812;2023-02-18T04:37:21;2.20;;;1.70;;
9958;SDS011;5019;48.012;7.812;2023-02-18T04:39:46;0.80;;;0.80;;
9958;SDS011;5019;48.012;7.812;2023-02-18T04:42:12;1.30;;;1.20;;
9958;SDS011;5019;48.012;7.812;2023-02-18T04:44:38;1.00;;;0.83;;
9958;SDS011;5019;48.012;7.812;2023-02-18T04:47:05;2.07;;;1.27;;
9958;SDS011;5019;48.012;7.812;2023-02-18T04:49:31;0.70;;;0.70;;
9958;SDS011;5019;48.012;7.812;2023-02-18T04:51:57;0.67;;;0.67;;
9958;SDS011;5019;48.012;7.812;2023-02-18T04:54:23;1.23;;;1.00;;
9958;SDS011;5019;48.012;7.812;2023-02-18T04:56:49;1.13;;;0.90;;
9958;SDS011;5019;48.012;7.812;2023-02-18T04:59:15;0.80;;;0.80;;
9958;SDS011;5019;48.012;7.812;2023-02-18T05:01:42;1.00;;;0.80;;
9958;SDS011;5019;48.012;7.812;2023-02-18T05:04:07;0.90;;;0.90;;
9958;SDS011;5019;48.012;7.812;2023-02-18T05:06:33;0.80;;;0.80;;
9958;SDS011;5019;48.012;7.812;2023-02-18T05:08:59;0.90;;;0.70;;
9958;SDS011;5019;48.012;7.812;2023-02-18T05:11:25;1.70;;;0.83;;
9958;SDS011;5019;48.012;7.812;2023-02-18T05:13:52;3.43;;;1.30;;
9958;SDS011;5019;48.012;7.812;2023-02-18T05:16:17;0.63;;;0.63;;
9958;SDS011;5019;48.012;7.812;2023-02-18T05:18:43;0.90;;;0.90;;
9958;SDS011;5019;48.012;7.812;2023-02-18T05:21:09;0.80;;;0.80;;
9958;SDS011;5019;48.012;7.812;2023-02-18T05:23:36;1.40;;;0.80;;
9958;SDS011;5019;48.012;7.812;2023-02-18T05:26:02;0.90;;;0.90;;
9958;SDS011;5019;48.012;7.812;2023-02-18T05:28:28;1.07;;;0.97;;
9958;SDS011;5019;48.012;7.812;2023-02-18T05:30:54;1.77;;;1.10;;
9958;SDS011;5019;48.012;7.812;2023-02-18T05:33:20;3.03;;;0.80;;
9958;SDS011;5019;48.012;7.812;2023-02-18T05:35:47;0.90;;;0.90;;
9958;SDS011;5019;48.012;7.812;2023-02-18T05:38:13;1.07;;;0.80;;
9958;SDS011;5019;48.012;7.812;2023-02-18T05:40:39;0.77;;;0.77;;
9958;SDS011;5019;48.012;7.812;2023-02-18T05:43:05;1.10;;;1.00;;
9958;SDS011;5019;48.012;7.812;2023-02-18T05:45:31;0.97;;;0.80;;
9958;SDS011;5019;48.012;7.812;2023-02-18T05:47:57;1.53;;;0.93;;
9958;SDS011;5019;48.012;7.812;2023-02-18T05:50:23;0.80;;;0.70;;
9958;SDS011;5019;48.012;7.812;2023-02-18T05:52:49;1.73;;;0.70;;
9958;SDS011;5019;48.012;7.812;2023-02-18T05:55:15;1.43;;;1.00;;
9958;SDS011;5019;48.012;7.812;2023-02-18T05:57:41;0.70;;;0.70;;
9958;SDS011;5019;48.012;7.812;2023-02-18T06:00:07;0.73;;;0.73;;
9958;SDS011;5019;48.012;7.812;2023-02-18T06:02:34;0.93;;;0.80;;
9958;SDS011;5019;48.012;7.812;2023-02-18T06:05:00;3.80;;;0.80;;
9958;SDS011;5019;48.012;7.812;2023-02-18T06:07:26;0.70;;;0.70;;
9958;SDS011;5019;48.012;7.812;2023-02-18T06:09:52;0.70;;;0.70;;
9958;SDS011;5019;48.012;7.812;2023-02-18T06:12:18;0.87;;;0.70;;
9958;SDS011;5019;48.012;7.812;2023-02-18T06:14:44;1.17;;;0.90;;
9958;SDS011;5019;48.012;7.812;2023-02-18T06:17:10;0.80;;;0.80;;
9958;SDS011;5019;48.012;7.812;2023-02-18T06:19:37;1.00;;;1.00;;
9958;SDS011;5019;48.012;7.812;2023-02-18T06:22:03;0.80;;;0.80;;
9958;SDS011;5019;48.012;7.812;2023-02-18T06:24:29;0.70;;;0.70;;
9958;SDS011;5019;48.012;7.812;2023-02-18T06:26:55;0.73;;;0.70;;
9958;SDS011;5019;48.012;7.812;2023-02-18T06:29:21;0.93;;;0.93;;
9958;SDS011;5019;48.012;7.812;2023-02-18T06:31:48;0.70;;;0.70;;
9958;SDS011;5019;48.012;7.812;2023-02-18T06:34:13;0.70;;;0.70;;
9958;SDS011;5019;48.012;7.812;2023-02-18T06:36:39;0.80;;;0.80;;
9958;SDS011;5019;48.012;7.812;2023-02-18T06:39:06;1.20;;;0.90;;
9958;SDS011;5019;48.012;7.812;2023-02-18T06:41:32;0.93;;;0.83;;
9958;SDS011;5019;48.012;7.812;2023-02-18T06:43:58;0.87;;;0.70;;
9958;SDS011;5019;48.012;7.812;2023-02-18T06:46:24;1.60;;;0.90;;
9958;SDS011;5019;48.012;7.812;2023-02-18T06:48:50;0.83;;;0.83;;
9958;SDS011;5019;48.012;7.812;2023-02-18T06:51:16;0.93;;;0.80;;
9958;SDS011;5019;48.012;7.812;2023-02-18T06:53:43;0.80;;;0.80;;
9958;SDS011;5019;48.012;7.812;2023-02-18T06:56:10;0.90;;;0.80;;
9958;SDS011;5019;48.012;7.812;2023-02-18T06:58:36;0.77;;;0.77;;
9958;SDS011;5019;48.012;7.812;2023-02-18T07:01:02;3.63;;;0.77;;
9958;SDS011;5019;48.012;7.812;2023-02-18T07:03:28;0.70;;;0.70;;
9958;SDS011;5019;48.012;7.812;2023-02-18T07:05:54;0.70;;;0.70;;
9958;SDS011;5019;48.012;7.812;2023-02-18T07:08:21;1.00;;;0.80;;
9958;SDS011;5019;48.012;7.812;2023-02-18T07:10:47;0.80;;;0.80;;
9958;SDS011;5019;48.012;7.812;2023-02-18T07:13:13;0.70;;;0.70;;
9958;SDS011;5019;48.012;7.812;2023-02-18T07:15:39;0.80;;;0.80;;
9958;SDS011;5019;48.012;7.812;2023-02-18T07:18:05;0.80;;;0.70;;
9958;SDS011;5019;48.012;7.812;2023-02-18T07:20:31;1.00;;;0.93;;
9958;SDS011;5019;48.012;7.812;2023-02-18T07:22:57;0.77;;;0.77;;
9958;SDS011;5019;48.012;7.812;2023-02-18T07:25:23;0.70;;;0.70;;
9958;SDS011;5019;48.012;7.812;2023-02-18T07:27:49;0.80;;;0.80;;
9958;SDS011;5019;48.012;7.812;2023-02-18T07:30:16;0.80;;;0.80;;
9958;SDS011;5019;48.012;7.812;2023-02-18T07:32:42;0.60;;;0.60;;
9958;SDS011;5019;48.012;7.812;2023-02-18T07:35:09;0.70;;;0.70;;
9958;SDS011;5019;48.012;7.812;2023-02-18T07:37:35;0.80;;;0.80;;
9958;SDS011;5019;48.012;7.812;2023-02-18T07:40:02;0.70;;;0.70;;
9958;SDS011;5019;48.012;7.812;2023-02-18T07:42:28;0.90;;;0.80;;
9958;SDS011;5019;48.012;7.812;2023-02-18T07:44:54;0.83;;;0.80;;
9958;SDS011;5019;48.012;7.812;2023-02-18T07:47:20;0.83;;;0.80;;
9958;SDS011;5019;48.012;7.812;2023-02-18T07:49:46;0.83;;;0.70;;
9958;SDS011;5019;48.012;7.812;2023-02-18T07:52:13;0.70;;;0.70;;
9958;SDS011;5019;48.012;7.812;2023-02-18T07:54:39;0.87;;;0.70;;
9958;SDS011;5019;48.012;7.812;2023-02-18T07:57:05;1.17;;;0.80;;
9958;SDS011;5019;48.012;7.812;2023-02-18T07:59:31;1.43;;;0.80;;
9958;SDS011;5019;48.012;7.812;2023-02-18T08:01:57;0.83;;;0.70;;
9958;SDS011;5019;48.012;7.812;2023-02-18T08:04:23;0.63;;;0.63;;
9958;SDS011;5019;48.012;7.812;2023-02-18T08:06:49;0.70;;;0.70;;
9958;SDS011;5019;48.012;7.812;2023-02-18T08:09:16;0.70;;;0.70;;
9958;SDS011;5019;48.012;7.812;2023-02-18T08:11:42;1.43;;;1.13;;
9958;SDS011;5019;48.012;7.812;2023-02-18T08:14:08;0.93;;;0.83;;
9958;SDS011;5019;48.012;7.812;2023-02-18T08:16:34;0.77;;;0.70;;
9958;SDS011;5019;48.012;7.812;2023-02-18T08:19:00;0.67;;;0.67;;
9958;SDS011;5019;48.012;7.812;2023-02-18T08:21:27;1.33;;;0.90;;
9958;SDS011;5019;48.012;7.812;2023-02-18T08:23:53;1.00;;;0.80;;
9958;SDS011;5019;48.012;7.812;2023-02-18T08:26:19;0.90;;;0.90;;
9958;SDS011;5019;48.012;7.812;2023-02-18T08:28:46;0.83;;;0.80;;
9958;SDS011;5019;48.012;7.812;2023-02-18T08:31:19;1.30;;;1.10;;
9958;SDS011;5019;48.012;7.812;2023-02-18T08:33:46;0.97;;;0.97;;
9958;SDS011;5019;48.012;7.812;2023-02-18T08:36:12;0.80;;;0.80;;
9958;SDS011;5019;48.012;7.812;2023-02-18T08:38:38;0.73;;;0.73;;
9958;SDS011;5019;48.012;7.812;2023-02-18T08:41:05;1.80;;;0.80;;
9958;SDS011;5019;48.012;7.812;2023-02-18T08:43:31;0.70;;;0.70;;
9958;SDS011;5019;48.012;7.812;2023-02-18T08:45:57;2.80;;;1.00;;
9958;SDS011;5019;48.012;7.812;2023-02-18T08:48:23;0.93;;;0.80;;
9958;SDS011;5019;48.012;7.812;2023-02-18T08:50:49;1.07;;;0.97;;
9958;SDS011;5019;48.012;7.812;2023-02-18T08:53:16;0.90;;;0.90;;
9958;SDS011;5019;48.012;7.812;2023-02-18T08:55:42;0.70;;;0.70;;
9958;SDS011;5019;48.012;7.812;2023-02-18T08:58:08;1.40;;;1.03;;
9958;SDS011;5019;48.012;7.812;2023-02-18T09:00:35;1.13;;;1.03;;
9958;SDS011;5019;48.012;7.812;2023-02-18T09:03:01;1.87;;;0.90;;
9958;SDS011;5019;48.012;7.812;2023-02-18T09:05:27;0.90;;;0.90;;
9958;SDS011;5019;48.012;7.812;2023-02-18T09:07:53;0.77;;;0.77;;
9958;SDS011;5019;48.012;7.812;2023-02-18T09:10:19;0.90;;;0.90;;
9958;SDS011;5019;48.012;7.812;2023-02-18T09:12:45;1.27;;;0.90;;
9958;SDS011;5019;48.012;7.812;2023-02-18T09:15:11;0.80;;;0.80;;
9958;SDS011;5019;48.012;7.812;2023-02-18T09:17:37;0.90;;;0.90;;
9958;SDS011;5019;48.012;7.812;2023-02-18T09:23:07;1.10;;;1.10;;
9958;SDS011;5019;48.012;7.812;2023-02-18T09:25:33;2.30;;;1.20;;
9958;SDS011;5019;48.012;7.812;2023-02-18T09:27:59;1.10;;;1.00;;
9958;SDS011;5019;48.012;7.812;2023-02-18T09:30:25;0.83;;;0.83;;
9958;SDS011;5019;48.012;7.812;2023-02-18T09:32:51;1.87;;;1.00;;
9958;SDS011;5019;48.012;7.812;2023-02-18T09:35:17;1.00;;;0.90;;
9958;SDS011;5019;48.012;7.812;2023-02-18T09:37:43;0.77;;;0.77;;
9958;SDS011;5019;48.012;7.812;2023-02-18T09:40:11;1.13;;;0.90;;
9958;SDS011;5019;48.012;7.812;2023-02-18T09:42:45;1.33;;;0.87;;
9958;SDS011;5019;48.012;7.812;2023-02-18T09:45:12;0.80;;;0.80;;
9958;SDS011;5019;48.012;7.812;2023-02-18T09:47:38;1.17;;;1.00;;
9958;SDS011;5019;48.012;7.812;2023-02-18T09:50:21;1.07;;;0.80;;
9958;SDS011;5019;48.012;7.812;2023-02-18T09:52:48;1.13;;;0.90;;
9958;SDS011;5019;48.012;7.812;2023-02-18T09:55:19;1.00;;;0.87;;
9958;SDS011;5019;48.012;7.812;2023-02-18T09:57:48;1.07;;;0.93;;
9958;SDS011;5019;48.012;7.812;2023-02-18T10:00:16;1.03;;;0.90;;
9958;SDS011;5019;48.012;7.812;2023-02-18T10:02:54;1.27;;;1.17;;
9958;SDS011;5019;48.012;7.812;2023-02-18T10:05:21;1.13;;;1.03;;
9958;SDS011;5019;48.012;7.812;2023-02-18T10:07:48;1.23;;;0.90;;
9958;SDS011;5019;48.012;7.812;2023-02-18T10:10:22;0.90;;;0.90;;
9958;SDS011;5019;48.012;7.812;2023-02-18T10:12:49;0.90;;;0.90;;
9958;SDS011;5019;48.012;7.812;2023-02-18T10:15:19;0.80;;;0.80;;
9958;SDS011;5019;48.012;7.812;2023-02-18T10:17:45;1.13;;;1.13;;
9958;SDS011;5019;48.012;7.812;2023-02-18T10:20:15;1.00;;;0.87;;
9958;SDS011;5019;48.012;7.812;2023-02-18T10:22:41;0.97;;;0.90;;
9958;SDS011;5019;48.012;7.812;2023-02-18T10:25:08;1.00;;;0.90;;
9958;SDS011;5019;48.012;7.812;2023-02-18T10:27:42;0.70;;;0.70;;
9958;SDS011;5019;48.012;7.812;2023-02-18T10:32:37;0.80;;;0.80;;
9958;SDS011;5019;48.012;7.812;2023-02-18T10:35:14;1.40;;;1.23;;
9958;SDS011;5019;48.012;7.812;2023-02-18T10:47:57;1.73;;;0.93;;
9958;SDS011;5019;48.012;7.812;2023-02-18T10:50:36;0.80;;;0.80;;
9958;SDS011;5019;48.012;7.812;2023-02-18T10:53:16;1.03;;;0.90;;
9958;SDS011;5019;48.012;7.812;2023-02-18T10:55:44;1.23;;;1.13;;
9958;SDS011;5019;48.012;7.812;2023-02-18T11:00:55;1.00;;;0.90;;
9958;SDS011;5019;48.012;7.812;2023-02-18T11:03:43;1.20;;;1.20;;
9958;SDS011;5019;48.012;7.812;2023-02-18T11:06:53;1.00;;;1.00;;
9958;SDS011;5019;48.012;7.812;2023-02-18T11:08:54;1.87;;;0.80;;
9958;SDS011;5019;48.012;7.812;2023-02-18T11:11:27;1.40;;;1.30;;
9958;SDS011;5019;48.012;7.812;2023-02-18T11:13:55;0.83;;;0.83;;
9958;SDS011;5019;48.012;7.812;2023-02-18T11:16:23;0.90;;;0.90;;
9958;SDS011;5019;48.012;7.812;2023-02-18T11:19:00;2.10;;;1.43;;
9958;SDS011;5019;48.012;7.812;2023-02-18T11:21:29;1.93;;;1.10;;
9958;SDS011;5019;48.012;7.812;2023-02-18T11:23:56;1.27;;;1.03;;
9958;SDS011;5019;48.012;7.812;2023-02-18T11:26:27;0.80;;;0.80;;
9958;SDS011;5019;48.012;7.812;2023-02-18T11:29:28;1.20;;;0.90;;
9958;SDS011;5019;48.012;7.812;2023-02-18T11:31:48;1.10;;;1.10;;
9958;SDS011;5019;48.012;7.812;2023-02-18T11:34:17;1.03;;;0.87;;
9958;SDS011;5019;48.012;7.812;2023-02-18T11:36:44;1.10;;;1.00;;
9958;SDS011;5019;48.012;7.812;2023-02-18T11:41:47;0.73;;;0.73;;
9958;SDS011;5019;48.012;7.812;2023-02-18T11:44:21;2.27;;;1.10;;
9958;SDS011;5019;48.012;7.812;2023-02-18T11:46:55;1.10;;;1.00;;
9958;SDS011;5019;48.012;7.812;2023-02-18T11:49:22;0.93;;;0.90;;
9958;SDS011;5019;48.012;7.812;2023-02-18T11:51:48;0.80;;;0.80;;
9958;SDS011;5019;48.012;7.812;2023-02-18T11:54:25;1.30;;;1.20;;
9958;SDS011;5019;48.012;7.812;2023-02-18T11:57:10;0.80;;;0.70;;
9958;SDS011;5019;48.012;7.812;2023-02-18T11:59:37;1.00;;;1.00;;
9958;SDS011;5019;48.012;7.812;2023-02-18T12:04:39;1.37;;;0.97;;
9958;SDS011;5019;48.012;7.812;2023-02-18T12:15:47;1.00;;;1.00;;
9958;SDS011;5019;48.012;7.812;2023-02-18T12:26:13;1.00;;;0.93;;
9958;SDS011;5019;48.012;7.812;2023-02-18T12:28:44;1.17;;;1.07;;
9958;SDS011;5019;48.012;7.812;2023-02-18T12:46:57;1.23;;;1.13;;
9958;SDS011;5019;48.012;7.812;2023-02-18T12:52:04;1.97;;;1.53;;
9958;SDS011;5019;48.012;7.812;2023-02-18T12:54:38;1.10;;;1.00;;
9958;SDS011;5019;48.012;7.812;2023-02-18T12:57:13;1.33;;;1.07;;
9958;SDS011;5019;48.012;7.812;2023-02-18T13:02:22;1.23;;;0.70;;
9958;SDS011;5019;48.012;7.812;2023-02-18T13:05:10;1.30;;;1.20;;
9958;SDS011;5019;48.012;7.812;2023-02-18T13:13:04;1.83;;;1.20;;
9958;SDS011;5019;48.012;7.812;2023-02-18T13:15:43;0.90;;;0.90;;
9958;SDS011;5019;48.012;7.812;2023-02-18T13:18:13;0.80;;;0.80;;
9958;SDS011;5019;48.012;7.812;2023-02-18T13:20:51;1.13;;;1.03;;
9958;SDS011;5019;48.012;7.812;2023-02-18T13:23:20;2.90;;;1.10;;
9958;SDS011;5019;48.012;7.812;2023-02-18T13:25:47;1.10;;;1.00;;
9958;SDS011;5019;48.012;7.812;2023-02-18T13:28:17;1.17;;;1.07;;
9958;SDS011;5019;48.012;7.812;2023-02-18T13:40:44;1.10;;;1.00;;
9958;SDS011;5019;48.012;7.812;2023-02-18T13:43:44;1.20;;;1.10;;
9958;SDS011;5019;48.012;7.812;2023-02-18T13:51:08;1.40;;;1.23;;
9958;SDS011;5019;48.012;7.812;2023-02-18T13:53:35;2.00;;;1.10;;
9958;SDS011;5019;48.012;7.812;2023-02-18T13:58:35;1.00;;;1.00;;
9958;SDS011;5019;48.012;7.812;2023-02-18T14:01:03;1.13;;;1.10;;
9958;SDS011;5019;48.012;7.812;2023-02-18T14:03:49;0.90;;;0.90;;
9958;SDS011;5019;48.012;7.812;2023-02-18T14:06:36;1.60;;;1.00;;
9958;SDS011;5019;48.012;7.812;2023-02-18T14:09:47;0.90;;;0.90;;
9958;SDS011;5019;48.012;7.812;2023-02-18T14:11:53;2.57;;;1.03;;
9958;SDS011;5019;48.012;7.812;2023-02-18T14:19:36;1.20;;;0.90;;
9958;SDS011;5019;48.012;7.812;2023-02-18T14:24:47;1.50;;;1.33;;
9958;SDS011;5019;48.012;7.812;2023-02-18T14:27:14;1.40;;;1.30;;
9958;SDS011;5019;48.012;7.812;2023-02-18T14:29:41;1.00;;;0.90;;
9958;SDS011;5019;48.012;7.812;2023-02-18T14:32:10;2.63;;;1.27;;
9958;SDS011;5019;48.012;7.812;2023-02-18T14:34:44;1.10;;;1.00;;
9958;SDS011;5019;48.012;7.812;2023-02-18T14:47:44;1.30;;;1.10;;
9958;SDS011;5019;48.012;7.812;2023-02-18T14:50:14;1.40;;;1.10;;
9958;SDS011;5019;48.012;7.812;2023-02-18T14:52:44;1.63;;;1.27;;
9958;SDS011;5019;48.012;7.812;2023-02-18T14:55:18;0.80;;;0.77;;
9958;SDS011;5019;48.012;7.812;2023-02-18T14:57:49;0.90;;;0.90;;
9958;SDS011;5019;48.012;7.812;2023-02-18T15:00:18;1.27;;;1.17;;
9958;SDS011;5019;48.012;7.812;2023-02-18T15:02:46;0.83;;;0.80;;
9958;SDS011;5019;48.012;7.812;2023-02-18T15:05:14;1.07;;;0.97;;
9958;SDS011;5019;48.012;7.812;2023-02-18T15:07:41;1.30;;;1.20;;
9958;SDS011;5019;48.012;7.812;2023-02-18T15:10:13;1.40;;;1.30;;
9958;SDS011;5019;48.012;7.812;2023-02-18T15:12:40;2.50;;;1.30;;
9958;SDS011;5019;48.012;7.812;2023-02-18T15:15:06;1.63;;;1.10;;
9958;SDS011;5019;48.012;7.812;2023-02-18T15:17:34;1.10;;;1.00;;
9958;SDS011;5019;48.012;7.812;2023-02-18T15:20:02;0.90;;;0.90;;
9958;SDS011;5019;48.012;7.812;2023-02-18T15:22:30;2.40;;;1.13;;
9958;SDS011;5019;48.012;7.812;2023-02-18T15:24:57;2.07;;;1.40;;
9958;SDS011;5019;48.012;7.812;2023-02-18T15:27:24;2.80;;;1.47;;
9958;SDS011;5019;48.012;7.812;2023-02-18T15:29:51;1.33;;;1.20;;
9958;SDS011;5019;48.012;7.812;2023-02-18T15:32:19;0.90;;;0.90;;
9958;SDS011;5019;48.012;7.812;2023-02-18T15:34:48;1.30;;;1.07;;
9958;SDS011;5019;48.012;7.812;2023-02-18T15:37:15;0.93;;;0.83;;
9958;SDS011;5019;48.012;7.812;2023-02-18T15:39:41;1.93;;;1.20;;
9958;SDS011;5019;48.012;7.812;2023-02-18T15:44:34;0.93;;;0.93;;
9958;SDS011;5019;48.012;7.812;2023-02-18T15:47:02;1.30;;;1.20;;
9958;SDS011;5019;48.012;7.812;2023-02-18T15:49:31;0.73;;;0.70;;
9958;SDS011;5019;48.012;7.812;2023-02-18T15:51:57;1.43;;;1.10;;
9958;SDS011;5019;48.012;7.812;2023-02-18T15:54:25;1.60;;;1.50;;
9958;SDS011;5019;48.012;7.812;2023-02-18T15:56:52;1.30;;;1.13;;
9958;SDS011;5019;48.012;7.812;2023-02-18T16:01:53;1.27;;;1.17;;
9958;SDS011;5019;48.012;7.812;2023-02-18T16:04:20;1.10;;;1.10;;
9958;SDS011;5019;48.012;7.812;2023-02-18T16:06:50;1.40;;;1.30;;
9958;SDS011;5019;48.012;7.812;2023-02-18T16:09:28;1.50;;;1.23;;
9958;SDS011;5019;48.012;7.812;2023-02-18T16:11:55;1.20;;;1.10;;
9958;SDS011;5019;48.012;7.812;2023-02-18T16:14:31;2.37;;;1.50;;
9958;SDS011;5019;48.012;7.812;2023-02-18T16:17:08;1.70;;;1.00;;
9958;SDS011;5019;48.012;7.812;2023-02-18T16:22:16;3.57;;;2.03;;
9958;SDS011;5019;48.012;7.812;2023-02-18T16:24:46;1.90;;;1.80;;
9958;SDS011;5019;48.012;7.812;2023-02-18T16:27:15;1.67;;;1.57;;
9958;SDS011;5019;48.012;7.812;2023-02-18T16:29:42;3.17;;;2.23;;
9958;SDS011;5019;48.012;7.812;2023-02-18T16:32:08;1.70;;;1.60;;
9958;SDS011;5019;48.012;7.812;2023-02-18T16:34:34;1.40;;;1.30;;
9958;SDS011;5019;48.012;7.812;2023-02-18T16:37:01;1.03;;;0.93;;
9958;SDS011;5019;48.012;7.812;2023-02-18T16:39:46;1.57;;;1.47;;
9958;SDS011;5019;48.012;7.812;2023-02-18T16:42:13;2.77;;;2.10;;
9958;SDS011;5019;48.012;7.812;2023-02-18T16:44:39;1.70;;;1.43;;
9958;SDS011;5019;48.012;7.812;2023-02-18T16:47:06;1.80;;;1.70;;
9958;SDS011;5019;48.012;7.812;2023-02-18T16:49:35;1.27;;;1.17;;
9958;SDS011;5019;48.012;7.812;2023-02-18T16:52:04;4.40;;;1.70;;
9958;SDS011;5019;48.012;7.812;2023-02-18T16:54:31;1.10;;;1.10;;
9958;SDS011;5019;48.012;7.812;2023-02-18T16:56:58;1.83;;;1.10;;
9958;SDS011;5019;48.012;7.812;2023-02-18T16:59:24;1.87;;;1.30;;
9958;SDS011;5019;48.012;7.812;2023-02-18T17:01:50;1.27;;;1.17;;
9958;SDS011;5019;48.012;7.812;2023-02-18T17:04:16;1.30;;;1.20;;
9958;SDS011;5019;48.012;7.812;2023-02-18T17:06:44;1.53;;;1.43;;
9958;SDS011;5019;48.012;7.812;2023-02-18T17:09:12;1.70;;;1.13;;
9958;SDS011;5019;48.012;7.812;2023-02-18T17:11:41;1.53;;;1.33;;
9958;SDS011;5019;48.012;7.812;2023-02-18T17:14:08;0.90;;;0.90;;
9958;SDS011;5019;48.012;7.812;2023-02-18T17:16:35;1.00;;;0.90;;
9958;SDS011;5019;48.012;7.812;2023-02-18T17:19:01;2.27;;;1.13;;
9958;SDS011;5019;48.012;7.812;2023-02-18T17:21:27;2.70;;;1.47;;
9958;SDS011;5019;48.012;7.812;2023-02-18T17:23:53;2.00;;;1.40;;
9958;SDS011;5019;48.012;7.812;2023-02-18T17:26:20;1.07;;;1.07;;
9958;SDS011;5019;48.012;7.812;2023-02-18T17:28:48;1.30;;;1.20;;
9958;SDS011;5019;48.012;7.812;2023-02-18T17:31:37;2.00;;;1.20;;
9958;SDS011;5019;48.012;7.812;2023-02-18T17:34:05;1.60;;;1.30;;
9958;SDS011;5019;48.012;7.812;2023-02-18T17:36:31;2.53;;;1.80;;
9958;SDS011;5019;48.012;7.812;2023-02-18T17:38:57;1.60;;;1.50;;
9958;SDS011;5019;48.012;7.812;2023-02-18T17:41:24;1.30;;;1.20;;
9958;SDS011;5019;48.012;7.812;2023-02-18T17:43:50;1.30;;;1.20;;
9958;SDS011;5019;48.012;7.812;2023-02-18T17:46:17;1.70;;;1.30;;
9958;SDS011;5019;48.012;7.812;2023-02-18T17:48:44;1.40;;;1.30;;
9958;SDS011;5019;48.012;7.812;2023-02-18T17:51:16;2.03;;;1.67;;
9958;SDS011;5019;48.012;7.812;2023-02-18T17:53:44;1.73;;;1.50;;
9958;SDS011;5019;48.012;7.812;2023-02-18T17:56:10;2.40;;;1.63;;
9958;SDS011;5019;48.012;7.812;2023-02-18T17:58:38;5.20;;;1.33;;